createdAt,value
2023-03-23T15:59:52.892Z,67.77
2023-03-23T16:02:29.225Z,67.84
2023-03-23T16:05:04.795Z,67.83
2023-03-23T16:07:40.948Z,67.91
2023-03-23T16:10:22.338Z,67.75
2023-03-23T16:12:56.928Z,67.98
2023-03-23T16:15:33.094Z,67.87
2023-03-23T16:18:07.716Z,67.91
2023-03-23T16:20:50.208Z,67.94
2023-03-23T16:23:24.937Z,68.05
2023-03-23T16:26:01.579Z,68.04
2023-03-23T16:28:36.602Z,68.06
2023-03-23T16:31:10.210Z,68.18
2023-03-23T16:33:50.226Z,68.31
2023-03-23T16:36:27.985Z,68.44
2023-03-23T16:39:03.478Z,68.59
2023-03-23T16:41:42.358Z,68.61
2023-03-23T16:44:19.486Z,68.69
2023-03-23T16:46:58.427Z,68.83
2023-03-23T16:49:39.585Z,68.88
2023-03-23T16:52:13.582Z,69.00
2023-03-23T16:54:51.154Z,69.06
2023-03-23T16:57:31.310Z,69.06
2023-03-23T17:00:08.012Z,69.23
2023-03-23T17:02:45.606Z,69.29
2023-03-23T17:05:23.419Z,69.42
2023-03-23T17:08:04.000Z,69.53
2023-03-23T17:10:43.075Z,69.72
2023-03-23T17:13:22.530Z,69.76
2023-03-23T17:16:03.247Z,69.82
2023-03-23T17:18:47.722Z,70.14
2023-03-23T17:21:26.414Z,70.06
2023-03-23T17:24:04.443Z,70.27
2023-03-23T17:26:40.005Z,70.36
2023-03-23T17:29:18.863Z,70.50
2023-03-23T17:31:59.400Z,70.53
2023-03-23T17:34:34.331Z,70.57
2023-03-23T17:37:11.893Z,70.63
2023-03-23T17:39:47.570Z,70.70
2023-03-23T17:42:29.210Z,70.76
2023-03-23T17:45:22.980Z,70.81
2023-03-23T17:47:56.328Z,71.08
2023-03-23T17:50:32.704Z,71.04
2023-03-23T17:53:10.236Z,71.12
2023-03-23T17:55:46.671Z,71.16
2023-03-23T17:58:22.570Z,71.25
2023-03-23T18:01:02.280Z,71.26
2023-03-23T18:03:38.605Z,71.22
2023-03-23T18:06:15.197Z,71.36
2023-03-23T18:08:51.822Z,71.49
2023-03-23T18:11:26.867Z,71.43
2023-03-23T18:14:00.564Z,71.48
2023-03-23T18:16:35.450Z,71.53
2023-03-23T18:19:10.546Z,71.52
2023-03-23T18:21:51.379Z,71.69
2023-03-23T18:24:27.035Z,71.71
2023-03-23T18:27:03.397Z,71.77
2023-03-23T18:29:43.710Z,71.88
2023-03-23T18:32:22.093Z,71.97
2023-03-23T18:35:03.400Z,72.02
2023-03-23T18:37:42.125Z,72.03
2023-03-23T18:40:22.908Z,72.07
2023-03-23T18:43:00.828Z,72.10
2023-03-23T18:45:36.801Z,72.23
2023-03-23T18:48:14.356Z,72.22
2023-03-23T18:50:54.991Z,72.29
2023-03-23T18:53:33.874Z,72.40
2023-03-23T18:56:14.837Z,72.44
2023-03-23T18:58:53.300Z,72.61
2023-03-23T19:01:29.874Z,72.70
2023-03-23T19:04:07.467Z,72.84
2023-03-23T19:06:49.660Z,72.88
2023-03-23T19:09:25.645Z,72.88
2023-03-23T19:12:05.662Z,72.98
2023-03-23T19:14:43.606Z,73.08
2023-03-23T19:17:21.694Z,73.23
2023-03-23T19:19:59.052Z,73.24
2023-03-23T19:22:35.628Z,73.38
2023-03-23T19:25:12.938Z,73.51
2023-03-23T19:28:33.715Z,73.69
2023-03-23T19:30:51.206Z,73.73
2023-03-23T19:33:31.083Z,73.79
2023-03-23T19:36:12.986Z,73.95
2023-03-23T19:38:48.548Z,74.23
2023-03-23T19:41:30.242Z,74.39
2023-03-23T19:44:12.098Z,74.58
2023-03-23T19:46:49.393Z,74.59
2023-03-23T19:49:26.216Z,74.55
2023-03-23T19:52:08.027Z,74.73
2023-03-23T19:54:50.193Z,74.76
2023-03-23T19:57:29.314Z,75.05
2023-03-23T20:00:13.551Z,75.26
2023-03-23T20:02:52.604Z,76.05
2023-03-23T20:05:31.115Z,76.09
2023-03-23T20:08:07.606Z,76.24
2023-03-23T20:10:46.647Z,76.05
2023-03-23T20:13:31.957Z,76.04
2023-03-23T20:16:14.576Z,75.85
2023-03-23T20:18:50.691Z,75.70
2023-03-23T20:21:36.075Z,75.50
2023-03-23T20:24:12.662Z,75.32
2023-03-23T20:26:50.000Z,75.16
2023-03-23T20:29:31.855Z,75.05
2023-03-23T20:32:13.443Z,74.95
2023-03-23T20:34:50.007Z,75.05
2023-03-23T20:37:43.159Z,75.01
2023-03-23T20:40:21.859Z,75.11
2023-03-23T20:43:21.055Z,75.00
2023-03-23T20:45:58.012Z,75.02
2023-03-23T20:48:40.959Z,74.88
2023-03-23T20:51:23.363Z,74.95
2023-03-23T20:53:56.256Z,74.98
2023-03-23T20:56:33.659Z,75.02
2023-03-23T20:59:13.036Z,74.98
2023-03-23T21:01:51.148Z,74.87
2023-03-23T21:04:31.220Z,74.89
2023-03-23T21:07:07.926Z,74.73
2023-03-23T21:09:43.367Z,74.78
2023-03-23T21:12:20.488Z,74.72
2023-03-23T21:14:58.251Z,74.64
2023-03-23T21:17:35.057Z,74.60
2023-03-23T21:20:17.047Z,74.93
2023-03-23T21:22:53.661Z,75.34
2023-03-23T21:25:35.371Z,75.97
2023-03-23T21:28:11.005Z,76.22
2023-03-23T21:30:46.299Z,76.33
2023-03-23T21:33:24.926Z,76.48
2023-03-23T21:36:03.181Z,76.35
2023-03-23T21:38:40.457Z,76.10
2023-03-23T21:41:15.658Z,75.98
2023-03-23T21:43:52.371Z,76.08
2023-03-23T21:46:39.515Z,76.12
2023-03-23T21:49:16.899Z,75.98
2023-03-23T21:51:52.539Z,75.91
2023-03-23T21:54:31.148Z,75.86
2023-03-23T21:57:08.260Z,75.86
2023-03-23T21:59:47.311Z,75.91
2023-03-23T22:02:32.503Z,76.05
2023-03-23T22:05:10.097Z,75.99
2023-03-23T22:07:47.052Z,76.08
2023-03-23T22:10:25.883Z,75.98
2023-03-23T22:13:01.111Z,75.96
2023-03-23T22:15:37.807Z,75.99
2023-03-23T22:18:14.010Z,76.05
2023-03-23T22:20:52.358Z,76.24
2023-03-23T22:23:29.281Z,76.16
2023-03-23T22:26:09.278Z,76.21
2023-03-23T22:28:45.852Z,76.22
2023-03-23T22:31:23.622Z,76.20
2023-03-23T22:34:01.864Z,76.25
2023-03-23T22:36:36.763Z,76.35
2023-03-23T22:39:17.140Z,76.57
2023-03-23T22:41:53.912Z,76.64
2023-03-23T22:44:39.665Z,76.97
2023-03-23T22:47:14.893Z,77.09
2023-03-23T22:49:53.782Z,77.26
2023-03-23T22:52:29.346Z,77.57
2023-03-23T22:55:15.591Z,77.49
2023-03-23T22:57:59.157Z,77.54
2023-03-23T23:00:42.984Z,77.54
2023-03-23T23:03:19.404Z,77.63
2023-03-23T23:06:02.122Z,77.78
2023-03-23T23:08:39.746Z,77.97
2023-03-23T23:11:18.120Z,78.01
2023-03-23T23:13:55.272Z,78.26
2023-03-23T23:16:34.964Z,78.41
2023-03-23T23:19:17.371Z,78.33
2023-03-23T23:22:01.832Z,78.30
2023-03-23T23:24:49.122Z,78.13
2023-03-23T23:27:28.956Z,78.18
2023-03-23T23:30:04.224Z,78.13
2023-03-23T23:32:44.098Z,78.14
2023-03-23T23:35:20.850Z,78.02
2023-03-23T23:37:58.076Z,78.10
2023-03-23T23:40:37.637Z,78.05
2023-03-23T23:43:17.604Z,78.16
2023-03-23T23:45:56.794Z,78.02
2023-03-23T23:48:41.562Z,78.36
2023-03-23T23:51:18.592Z,78.43
2023-03-23T23:53:59.356Z,78.42
2023-03-23T23:56:37.971Z,78.51
2023-03-23T23:59:21.079Z,78.50
